CheckWX is a tool to help pilots better visualize weather data.  It is not intended as a substitute for an official pre-flight weather briefing.

19:41:23 UTC

EYPA METAR
Palanga International Airport
Palanga, Lithuania
Current

21 mins ago

EYPA 211920Z VRB02KT CAVOK 12/12 Q1017
Observed
Sep-21 @ 19:20 UTC
Wind
  • Variable at 2 KTS
Visibility
10,000+ meters
Flight Rules
VFR
Cloud Levels
  • Clear skies
Temperature
12°C / 54°F
Dewpoint
12°C / 54°F
Humidity
100%
Altimeter
30.03" Hg
Pressure
1016.92 hPa
Previous

51 mins ago

EYPA 211850Z 35003KT 300V030 CAVOK 13/12 Q1017
Observed
Sep-21 @ 18:50 UTC
Wind
  • 350° at 3 KTS
Visibility
10,000+ meters
Flight Rules
VFR
Cloud Levels
  • Clear skies
Temperature
13°C / 55°F
Dewpoint
12°C / 54°F
Humidity
94%
Altimeter
30.03" Hg
Pressure
1016.92 hPa
Previous

1 hour ago

EYPA 211820Z VRB04KT CAVOK 14/12 Q1017
Observed
Sep-21 @ 18:20 UTC
Wind
  • Variable at 4 KTS
Visibility
10,000+ meters
Flight Rules
VFR
Cloud Levels
  • Clear skies
Temperature
14°C / 57°F
Dewpoint
12°C / 54°F
Humidity
88%
Altimeter
30.03" Hg
Pressure
1016.92 hPa